createdAt,value
2022-09-07T00:01:18.952Z,98199.20
2022-09-07T00:03:47.241Z,98191.39
2022-09-07T00:06:15.493Z,98191.06
2022-09-07T00:08:43.818Z,98187.61
2022-09-07T00:11:18.525Z,98189.60
2022-09-07T00:13:49.690Z,98189.96
2022-09-07T00:16:26.393Z,98182.40
2022-09-07T00:18:57.177Z,98186.20
2022-09-07T00:21:26.583Z,98189.85
2022-09-07T00:23:55.554Z,98193.10
2022-09-07T00:26:30.472Z,98190.67
2022-09-07T00:29:01.737Z,98187.15
2022-09-07T00:31:31.689Z,98185.22
2022-09-07T00:34:01.980Z,98186.92
2022-09-07T00:36:30.825Z,98184.80
2022-09-07T00:38:59.408Z,98182.48
2022-09-07T00:41:27.657Z,98179.31
2022-09-07T00:44:37.602Z,98178.31
2022-09-07T00:47:13.952Z,98181.36
2022-09-07T00:49:45.761Z,98184.06
2022-09-07T00:52:16.227Z,98179.80
2022-09-07T00:54:53.518Z,98174.95
2022-09-07T00:57:22.430Z,98170.14
2022-09-07T00:59:53.799Z,98169.02
2022-09-07T01:02:22.521Z,98172.66
2022-09-07T01:04:59.152Z,98175.71
2022-09-07T01:07:27.375Z,98177.35
2022-09-07T01:09:57.213Z,98176.94
2022-09-07T01:12:25.543Z,98172.77
2022-09-07T01:14:54.953Z,98173.59
2022-09-07T01:17:51.547Z,98174.64
2022-09-07T01:21:02.500Z,98177.27
2022-09-07T01:24:09.927Z,98177.09
2022-09-07T01:27:02.861Z,98178.30
2022-09-07T01:29:39.752Z,98173.67
2022-09-07T01:32:54.605Z,98174.17
2022-09-07T01:36:01.625Z,98179.25
2022-09-07T01:38:55.285Z,98175.39
2022-09-07T01:42:13.525Z,98167.64
2022-09-07T01:44:57.677Z,98167.91
2022-09-07T01:47:47.535Z,98166.77
2022-09-07T01:50:26.012Z,98166.38
2022-09-07T01:53:21.400Z,98164.19
2022-09-07T01:55:55.508Z,98161.27
2022-09-07T01:58:35.184Z,98158.33
2022-09-07T02:01:41.874Z,98157.63
2022-09-07T02:04:35.372Z,98156.80
2022-09-07T02:07:15.972Z,98148.08
2022-09-07T02:09:54.613Z,98152.81
2022-09-07T02:12:35.210Z,98151.11
2022-09-07T02:15:12.227Z,98152.34
2022-09-07T02:17:46.676Z,98151.45
2022-09-07T02:20:24.037Z,98145.97
2022-09-07T02:23:00.414Z,98146.89
2022-09-07T02:26:07.359Z,98159.00
2022-09-07T02:28:38.565Z,98182.48
2022-09-07T02:31:08.395Z,98223.17
2022-09-07T02:33:37.045Z,98241.83
2022-09-07T02:36:06.460Z,98232.33
2022-09-07T02:38:37.119Z,98207.46
2022-09-07T02:41:06.575Z,98215.53
2022-09-07T02:43:35.018Z,98224.77
2022-09-07T02:46:37.639Z,98206.13
2022-09-07T02:49:27.307Z,98202.58
2022-09-07T02:52:12.616Z,98202.02
2022-09-07T02:55:36.684Z,98195.00
2022-09-07T02:58:14.752Z,98190.45
2022-09-07T03:01:03.919Z,98186.04
2022-09-07T03:03:54.795Z,98183.48
2022-09-07T03:06:31.160Z,98179.58
2022-09-07T03:09:06.605Z,98176.17
2022-09-07T03:11:37.748Z,98179.65
2022-09-07T03:14:16.256Z,98177.89
2022-09-07T03:16:45.193Z,98170.97
2022-09-07T03:19:13.425Z,98166.37
2022-09-07T03:21:41.709Z,98164.77
2022-09-07T03:24:10.134Z,98163.36
2022-09-07T03:26:43.384Z,98165.45
2022-09-07T03:29:11.700Z,98163.97
2022-09-07T03:31:40.028Z,98165.86
2022-09-07T03:34:09.135Z,98167.09
2022-09-07T03:36:37.839Z,98171.74
2022-09-07T03:39:07.447Z,98171.70
2022-09-07T03:41:35.708Z,98173.16
2022-09-07T03:44:05.728Z,98175.32
2022-09-07T03:46:35.184Z,98172.56
2022-09-07T03:49:03.439Z,98166.14
2022-09-07T03:51:31.652Z,98168.05
2022-09-07T03:54:00.410Z,98172.98
2022-09-07T03:56:28.682Z,98166.55
2022-09-07T03:58:56.960Z,98167.89
2022-09-07T04:01:27.247Z,98174.30
2022-09-07T04:04:02.221Z,98177.52
2022-09-07T04:06:31.836Z,98179.32
2022-09-07T04:09:10.696Z,98179.77
2022-09-07T04:11:40.462Z,98181.36
2022-09-07T04:14:10.545Z,98184.68
2022-09-07T04:16:39.220Z,98184.56
2022-09-07T04:19:07.475Z,98187.17
2022-09-07T04:21:35.703Z,98188.33
2022-09-07T04:24:04.292Z,98191.05
2022-09-07T04:26:35.740Z,98191.91
2022-09-07T04:29:06.468Z,98199.02
2022-09-07T04:31:35.519Z,98209.08
2022-09-07T04:34:05.665Z,98212.05
2022-09-07T04:36:33.993Z,98216.33
2022-09-07T04:39:05.685Z,98214.61
2022-09-07T04:41:35.056Z,98209.62
2022-09-07T04:44:05.184Z,98213.51
2022-09-07T04:46:36.451Z,98217.01
2022-09-07T04:49:09.387Z,98214.25
2022-09-07T04:51:38.965Z,98208.53
2022-09-07T04:54:07.376Z,98208.53
2022-09-07T04:56:35.863Z,98216.30
2022-09-07T04:59:04.651Z,98221.92
2022-09-07T05:01:33.482Z,98219.11
2022-09-07T05:04:03.009Z,98217.63
2022-09-07T05:06:31.552Z,98216.00
2022-09-07T05:09:00.140Z,98224.52
2022-09-07T05:11:29.990Z,98224.14
2022-09-07T05:14:01.250Z,98219.62
2022-09-07T05:16:31.702Z,98211.89
2022-09-07T05:19:02.620Z,98218.59
2022-09-07T05:21:34.052Z,98220.48
2022-09-07T05:24:04.359Z,98218.46
2022-09-07T05:26:36.796Z,98212.80
2022-09-07T05:31:56.077Z,98206.29
2022-09-07T05:36:57.740Z,98210.20
2022-09-07T05:39:26.755Z,98213.02
2022-09-07T05:41:55.233Z,98217.33
2022-09-07T05:47:12.009Z,98213.16
2022-09-07T05:49:40.452Z,98217.03
2022-09-07T05:52:08.797Z,98218.88
2022-09-07T05:54:37.036Z,98220.28
2022-09-07T05:57:07.284Z,98218.72
2022-09-07T05:59:35.601Z,98224.98
2022-09-07T06:02:04.096Z,98231.63
2022-09-07T06:04:32.955Z,98235.74
2022-09-07T06:12:37.961Z,98245.73
2022-09-07T06:15:07.616Z,98243.06
2022-09-07T06:17:35.847Z,98244.51
2022-09-07T06:20:05.236Z,98250.45
2022-09-07T06:22:38.085Z,98251.66
2022-09-07T06:25:06.379Z,98251.23
2022-09-07T06:27:35.072Z,98256.66
2022-09-07T06:30:04.692Z,98259.96
2022-09-07T06:32:44.853Z,98255.54
2022-09-07T06:35:15.048Z,98247.88
2022-09-07T06:37:44.140Z,98242.61
2022-09-07T06:40:13.184Z,98238.63
2022-09-07T06:42:41.612Z,98230.59
2022-09-07T06:45:11.556Z,98225.46
2022-09-07T06:47:40.899Z,98221.48
2022-09-07T06:50:10.217Z,98224.75
2022-09-07T06:55:28.542Z,98229.44
2022-09-07T06:57:57.129Z,98225.91
2022-09-07T07:00:25.678Z,98234.24
2022-09-07T07:02:53.935Z,98243.43
2022-09-07T07:05:22.230Z,98251.35
2022-09-07T07:07:50.620Z,98252.80
2022-09-07T07:10:23.733Z,98257.27
2022-09-07T07:12:57.838Z,98261.55
2022-09-07T07:15:28.855Z,98260.20
2022-09-07T07:18:09.224Z,98257.70
2022-09-07T07:20:46.261Z,98255.83
2022-09-07T07:23:14.484Z,98254.81
2022-09-07T07:25:42.784Z,98252.08
2022-09-07T07:31:04.848Z,98256.28
2022-09-07T07:33:38.808Z,98255.83
2022-09-07T07:36:25.468Z,98259.73
2022-09-07T07:38:59.963Z,98256.95
2022-09-07T07:44:20.669Z,98247.16
2022-09-07T07:46:51.358Z,98247.17
2022-09-07T07:49:20.679Z,98253.70
2022-09-07T07:54:37.284Z,98262.17
2022-09-07T07:57:06.416Z,98258.89
2022-09-07T07:59:35.864Z,98257.13
2022-09-07T08:02:09.002Z,98253.40
2022-09-07T08:04:37.411Z,98257.63
2022-09-07T08:07:10.158Z,98255.15
2022-09-07T08:09:46.096Z,98258.45
2022-09-07T08:12:18.948Z,98258.64
2022-09-07T08:14:48.565Z,98261.15
2022-09-07T08:17:17.792Z,98260.59
2022-09-07T08:19:45.968Z,98256.46
2022-09-07T08:22:14.098Z,98257.47
2022-09-07T08:24:42.320Z,98257.96
2022-09-07T08:27:10.449Z,98262.67
2022-09-07T08:29:38.810Z,98264.10
2022-09-07T08:32:07.132Z,98267.08
2022-09-07T08:34:37.308Z,98268.16
2022-09-07T08:37:05.572Z,98269.30
2022-09-07T08:39:33.815Z,98266.41
2022-09-07T08:42:10.972Z,98268.86
2022-09-07T08:44:49.080Z,98272.13
2022-09-07T08:47:50.327Z,98273.15
2022-09-07T08:50:53.800Z,98274.20
2022-09-07T08:53:25.075Z,98275.77
2022-09-07T08:56:02.697Z,98276.08
2022-09-07T08:58:53.613Z,98271.44
2022-09-07T09:01:42.283Z,98274.13
2022-09-07T09:04:27.567Z,98267.61
2022-09-07T09:07:05.617Z,98266.23
2022-09-07T09:10:25.471Z,98264.42
2022-09-07T09:13:24.200Z,98260.15
2022-09-07T09:16:30.425Z,98255.32
2022-09-07T09:19:13.232Z,98256.19
2022-09-07T09:21:42.857Z,98251.98
2022-09-07T09:24:17.118Z,98243.11
2022-09-07T09:26:53.199Z,98239.04
2022-09-07T09:29:23.318Z,98243.23
2022-09-07T09:31:52.451Z,98241.32
2022-09-07T09:34:24.046Z,98242.95
2022-09-07T09:36:56.820Z,98244.85
2022-09-07T09:39:34.662Z,98247.27
2022-09-07T09:42:12.233Z,98251.10
2022-09-07T09:44:42.262Z,98253.36
2022-09-07T09:47:36.168Z,98252.77
2022-09-07T09:53:25.616Z,98253.58
2022-09-07T09:55:54.709Z,98256.58
2022-09-07T10:01:33.601Z,98249.55
2022-09-07T10:04:38.353Z,98247.88
2022-09-07T10:07:30.308Z,98245.86
2022-09-07T10:09:58.479Z,98237.11
2022-09-07T10:12:37.351Z,98231.66
2022-09-07T10:15:07.960Z,98233.34
2022-09-07T10:17:43.308Z,98228.80
2022-09-07T10:20:17.237Z,98228.45
2022-09-07T10:22:51.677Z,98228.59
2022-09-07T10:25:40.996Z,98231.09
2022-09-07T10:28:10.188Z,98238.05
2022-09-07T10:31:24.302Z,98241.14
2022-09-07T10:34:31.247Z,98232.82
2022-09-07T10:37:37.696Z,98225.61
2022-09-07T10:40:24.194Z,98226.16
2022-09-07T10:43:23.632Z,98223.13
2022-09-07T10:49:33.805Z,98218.38
2022-09-07T10:52:33.438Z,98218.19
2022-09-07T10:55:10.663Z,98214.61
2022-09-07T10:57:51.990Z,98212.80
2022-09-07T11:00:22.592Z,98212.05
2022-09-07T11:03:31.619Z,98204.19
2022-09-07T11:06:09.147Z,98203.81
2022-09-07T11:09:23.158Z,98200.22
2022-09-07T11:12:15.329Z,98194.36
2022-09-07T11:14:53.257Z,98187.80
2022-09-07T11:17:27.763Z,98187.70
2022-09-07T11:20:25.436Z,98180.68
2022-09-07T11:23:17.337Z,98167.23
2022-09-07T11:26:11.936Z,98167.56
2022-09-07T11:29:31.877Z,98168.93
2022-09-07T11:32:21.708Z,98163.86
2022-09-07T11:35:17.776Z,98164.80
2022-09-07T11:37:59.332Z,98166.75
2022-09-07T11:40:37.297Z,98162.30
2022-09-07T11:43:35.229Z,98162.30
2022-09-07T11:46:15.262Z,98155.67
2022-09-07T11:48:57.852Z,98151.34
2022-09-07T11:51:56.039Z,98154.64
2022-09-07T11:55:11.790Z,98153.11
2022-09-07T11:57:55.486Z,98148.60
2022-09-07T12:00:41.180Z,98144.40
2022-09-07T12:03:56.548Z,98139.36
2022-09-07T12:07:23.160Z,98134.36
2022-09-07T12:09:57.001Z,98134.48
2022-09-07T12:12:50.960Z,98130.47
2022-09-07T12:15:34.099Z,98126.92
2022-09-07T12:18:12.625Z,98128.38
2022-09-07T12:20:46.126Z,98130.49
2022-09-07T12:23:17.007Z,98129.23
2022-09-07T12:25:51.491Z,98122.27
2022-09-07T12:28:25.584Z,98121.73
2022-09-07T12:31:05.844Z,98118.25
2022-09-07T12:33:38.107Z,98120.26
2022-09-07T12:36:28.084Z,98116.09
2022-09-07T12:39:28.452Z,98116.42
2022-09-07T12:45:28.707Z,98108.73
2022-09-07T12:48:01.084Z,98107.00
2022-09-07T12:50:42.260Z,98104.80
2022-09-07T12:53:31.075Z,98105.11
2022-09-07T12:56:17.435Z,98101.79
2022-09-07T12:59:04.309Z,98103.48
2022-09-07T13:01:44.369Z,98100.17
2022-09-07T13:05:00.098Z,98094.88
2022-09-07T13:08:06.952Z,98097.88
2022-09-07T13:10:40.873Z,98096.02
2022-09-07T13:13:15.369Z,98092.27
2022-09-07T13:15:52.282Z,98092.30
2022-09-07T13:18:27.070Z,98097.52
2022-09-07T13:21:07.480Z,98097.54
2022-09-07T13:23:45.505Z,98103.04
2022-09-07T13:27:11.073Z,98097.86
2022-09-07T13:29:55.968Z,98104.11
2022-09-07T13:35:25.488Z,98097.96
2022-09-07T13:38:02.884Z,98090.62
2022-09-07T13:40:40.324Z,98086.51
2022-09-07T13:43:19.206Z,98083.40
2022-09-07T13:45:53.406Z,98080.29
2022-09-07T13:48:31.222Z,98078.82
2022-09-07T13:51:17.447Z,98070.67
2022-09-07T13:54:06.480Z,98069.18
2022-09-07T13:56:50.064Z,98070.91
2022-09-07T13:59:26.712Z,98072.41
2022-09-07T14:01:56.235Z,98069.13
2022-09-07T14:04:49.159Z,98074.21
2022-09-07T14:07:22.671Z,98076.38
2022-09-07T14:10:25.535Z,98074.63
2022-09-07T14:13:15.196Z,98073.17
2022-09-07T14:15:47.363Z,98070.75
2022-09-07T14:18:22.561Z,98073.11
2022-09-07T14:20:53.710Z,98076.27
2022-09-07T14:23:30.254Z,98075.92
2022-09-07T14:26:17.814Z,98077.90
2022-09-07T14:28:50.702Z,98082.92
2022-09-07T14:31:21.726Z,98083.98
2022-09-07T14:33:59.232Z,98081.06
2022-09-07T14:36:45.234Z,98078.63
2022-09-07T14:39:17.021Z,98082.70
2022-09-07T14:41:46.041Z,98080.25
2022-09-07T14:44:43.176Z,98076.28
2022-09-07T14:47:29.705Z,98074.14
2022-09-07T14:50:06.088Z,98072.77
2022-09-07T14:52:43.392Z,98067.57
2022-09-07T14:55:39.376Z,98062.05
2022-09-07T14:58:13.237Z,98058.27
2022-09-07T15:03:40.974Z,98051.00
2022-09-07T15:07:01.035Z,98048.47
2022-09-07T15:08:59.581Z,98044.13
2022-09-07T15:11:34.349Z,98044.55
2022-09-07T15:14:20.572Z,98036.67
2022-09-07T15:19:50.787Z,98038.54
2022-09-07T15:22:19.374Z,98035.38
2022-09-07T15:24:49.111Z,98033.85
2022-09-07T15:27:27.352Z,98036.05
2022-09-07T15:29:55.813Z,98033.29
2022-09-07T15:32:23.949Z,98034.48
2022-09-07T15:34:52.112Z,98026.96
2022-09-07T15:40:26.355Z,98032.34
2022-09-07T15:43:11.460Z,98034.08
2022-09-07T15:45:42.570Z,98039.99
2022-09-07T15:48:15.678Z,98038.52
2022-09-07T15:50:43.802Z,98037.14
2022-09-07T15:56:03.181Z,98044.77
2022-09-07T15:58:31.671Z,98047.16
2022-09-07T16:03:55.482Z,98047.56
2022-09-07T16:06:26.333Z,98047.70
2022-09-07T16:08:55.316Z,98045.94
2022-09-07T16:11:27.263Z,98043.85
2022-09-07T16:14:03.511Z,98046.28
2022-09-07T16:19:21.093Z,98047.58
2022-09-07T16:21:49.480Z,98044.05
2022-09-07T16:24:17.600Z,98040.85
2022-09-07T16:26:45.758Z,98039.40
2022-09-07T16:29:13.925Z,98034.96
2022-09-07T16:32:43.956Z,98041.35
2022-09-07T16:34:30.269Z,98038.00
2022-09-07T16:36:58.406Z,98037.47
2022-09-07T16:39:29.121Z,98038.34
2022-09-07T16:41:57.480Z,98038.55
2022-09-07T16:44:25.784Z,98034.55
2022-09-07T16:46:54.704Z,98034.12
2022-09-07T16:49:22.807Z,98032.53
2022-09-07T16:51:50.904Z,98036.26
2022-09-07T16:54:21.027Z,98033.15
2022-09-07T16:56:49.361Z,98032.84
2022-09-07T16:59:20.301Z,98037.03
2022-09-07T17:01:48.411Z,98036.42
2022-09-07T17:04:17.121Z,98040.72
2022-09-07T17:06:45.952Z,98040.34
2022-09-07T17:09:14.621Z,98043.80
2022-09-07T17:11:42.764Z,98045.69
2022-09-07T17:14:10.900Z,98049.66
2022-09-07T17:16:41.425Z,98053.39
2022-09-07T17:22:02.508Z,98057.94
2022-09-07T17:24:32.203Z,98054.98
2022-09-07T17:27:01.241Z,98058.69
2022-09-07T17:29:37.172Z,98057.22
2022-09-07T17:34:55.878Z,98061.89
2022-09-07T17:37:24.167Z,98065.29
2022-09-07T17:39:52.341Z,98062.81
2022-09-07T17:42:20.822Z,98064.23
2022-09-07T17:44:52.724Z,98066.02
2022-09-07T17:47:21.508Z,98069.62
2022-09-07T17:49:49.615Z,98072.05
2022-09-07T17:52:17.745Z,98072.02
2022-09-07T17:54:45.804Z,98068.54
2022-09-07T17:57:13.964Z,98075.94
2022-09-07T18:02:38.228Z,98087.27
2022-09-07T18:05:07.289Z,98090.36
2022-09-07T18:07:35.579Z,98089.52
2022-09-07T18:10:03.920Z,98091.70
2022-09-07T18:12:32.840Z,98093.86
2022-09-07T18:15:01.468Z,98093.64
2022-09-07T18:17:30.276Z,98100.98
2022-09-07T18:19:58.356Z,98106.19
2022-09-07T18:22:26.455Z,98107.84
2022-09-07T18:24:54.545Z,98104.38
2022-09-07T18:27:22.673Z,98102.53
2022-09-07T18:29:50.741Z,98101.55
2022-09-07T18:32:18.855Z,98104.02
2022-09-07T18:34:50.386Z,98101.51
2022-09-07T18:37:19.374Z,98104.40
2022-09-07T18:39:48.703Z,98101.34
2022-09-07T18:42:17.313Z,98104.89
2022-09-07T18:47:35.223Z,98093.31
2022-09-07T18:50:03.691Z,98097.39
2022-09-07T18:55:19.941Z,98097.21
2022-09-07T18:57:48.095Z,98095.23
2022-09-07T19:00:17.651Z,98095.92
2022-09-07T19:02:50.488Z,98091.36
2022-09-07T19:08:08.627Z,98102.46
2022-09-07T19:10:37.852Z,98103.77
2022-09-07T19:13:05.926Z,98103.80
2022-09-07T19:15:37.288Z,98103.14
2022-09-07T19:18:07.974Z,98098.93
2022-09-07T19:20:37.344Z,98096.06
2022-09-07T19:23:06.872Z,98096.08
2022-09-07T19:25:40.227Z,98092.28
2022-09-07T19:28:08.471Z,98094.05
2022-09-07T19:30:36.640Z,98095.18
2022-09-07T19:33:08.025Z,98091.39
2022-09-07T19:35:36.695Z,98087.58
2022-09-07T19:38:05.120Z,98082.67
2022-09-07T19:40:33.268Z,98079.52
2022-09-07T19:43:01.483Z,98081.13
2022-09-07T19:45:29.656Z,98082.58
2022-09-07T19:47:58.143Z,98085.66
2022-09-07T19:50:26.277Z,98087.92
2022-09-07T19:52:54.449Z,98088.90
2022-09-07T19:55:22.528Z,98088.24
2022-09-07T19:57:52.081Z,98090.33
2022-09-07T20:00:20.744Z,98089.61
2022-09-07T20:02:50.326Z,98082.05
2022-09-07T20:05:18.929Z,98084.98
2022-09-07T20:07:47.109Z,98087.30
2022-09-07T20:10:16.361Z,98082.42
2022-09-07T20:12:44.910Z,98084.27
2022-09-07T20:15:13.388Z,98086.73
2022-09-07T20:17:41.473Z,98087.03
2022-09-07T20:20:10.093Z,98083.57
2022-09-07T20:22:38.370Z,98083.88
2022-09-07T20:25:11.361Z,98081.81
2022-09-07T20:27:41.702Z,98079.73
2022-09-07T20:30:11.104Z,98079.31
2022-09-07T20:32:39.353Z,98084.48
2022-09-07T20:35:08.007Z,98079.99
2022-09-07T20:37:36.122Z,98081.27
2022-09-07T20:40:06.297Z,98084.09
2022-09-07T20:42:34.643Z,98085.27
2022-09-07T20:45:02.837Z,98087.08
2022-09-07T20:47:31.352Z,98094.02
2022-09-07T20:49:59.490Z,98097.16
2022-09-07T20:52:27.579Z,98096.10
2022-09-07T20:54:55.668Z,98097.55
2022-09-07T20:57:23.867Z,98096.05
2022-09-07T20:59:52.742Z,98092.95
2022-09-07T21:02:21.060Z,98095.23
2022-09-07T21:04:49.266Z,98096.27
2022-09-07T21:07:17.775Z,98096.80
2022-09-07T21:09:45.969Z,98097.67
2022-09-07T21:12:14.108Z,98094.75
2022-09-07T21:14:42.217Z,98095.96
2022-09-07T21:17:10.349Z,98094.11
2022-09-07T21:19:38.416Z,98094.56
2022-09-07T21:22:06.552Z,98094.75
2022-09-07T21:24:34.643Z,98090.52
2022-09-07T21:27:02.741Z,98089.90
2022-09-07T21:29:30.941Z,98091.02
2022-09-07T21:31:59.018Z,98092.20
2022-09-07T21:34:27.137Z,98090.33
2022-09-07T21:36:55.260Z,98089.58
2022-09-07T21:39:23.409Z,98090.67
2022-09-07T21:41:51.512Z,98094.28
2022-09-07T21:44:20.420Z,98092.09
2022-09-07T21:46:48.668Z,98092.96
2022-09-07T21:49:17.163Z,98088.41
2022-09-07T21:51:45.239Z,98084.42
2022-09-07T21:54:13.324Z,98081.37
2022-09-07T21:56:46.340Z,98086.33
2022-09-07T21:59:14.919Z,98084.86
2022-09-07T22:01:43.111Z,98085.05
2022-09-07T22:04:12.150Z,98089.95
2022-09-07T22:06:41.148Z,98087.61
2022-09-07T22:09:09.402Z,98086.39
2022-09-07T22:11:37.594Z,98082.31
2022-09-07T22:14:06.307Z,98082.73
2022-09-07T22:16:35.838Z,98083.80
2022-09-07T22:19:06.628Z,98080.77
2022-09-07T22:21:34.735Z,98083.60
2022-09-07T22:24:06.241Z,98081.98
2022-09-07T22:26:39.786Z,98075.80
2022-09-07T22:29:11.765Z,98077.29
2022-09-07T22:31:41.685Z,98075.06
2022-09-07T22:34:11.076Z,98074.23
2022-09-07T22:36:44.716Z,98070.11
2022-09-07T22:39:18.989Z,98068.17
2022-09-07T22:41:47.751Z,98065.67
2022-09-07T22:44:18.528Z,98066.77
2022-09-07T22:46:48.180Z,98067.32
2022-09-07T22:49:17.387Z,98067.94
2022-09-07T22:51:45.937Z,98065.77
2022-09-07T22:54:14.221Z,98063.66
2022-09-07T22:56:42.530Z,98065.23
2022-09-07T22:59:12.997Z,98061.34
2022-09-07T23:01:41.801Z,98060.66
2022-09-07T23:04:12.680Z,98056.71
2022-09-07T23:06:43.394Z,98056.64
2022-09-07T23:09:15.808Z,98054.08
2022-09-07T23:11:45.778Z,98057.06
2022-09-07T23:14:20.696Z,98058.16
2022-09-07T23:16:49.436Z,98058.84
2022-09-07T23:19:19.746Z,98050.31
2022-09-07T23:21:48.044Z,98049.60
2022-09-07T23:24:18.309Z,98045.98
2022-09-07T23:26:47.059Z,98045.10
2022-09-07T23:29:16.166Z,98038.54
2022-09-07T23:31:47.052Z,98041.52
2022-09-07T23:34:15.362Z,98041.30
2022-09-07T23:36:43.435Z,98048.10
2022-09-07T23:39:13.957Z,98050.64
2022-09-07T23:41:42.073Z,98052.73
2022-09-07T23:44:10.215Z,98057.48
2022-09-07T23:46:38.406Z,98055.27
2022-09-07T23:49:06.492Z,98052.77
2022-09-07T23:51:34.928Z,98049.73
2022-09-07T23:54:03.050Z,98050.20
2022-09-07T23:56:32.740Z,98043.82
2022-09-07T23:59:01.100Z,98044.77
